sensor_id;sensor_type;location;lat;lon;timestamp;P1;durP1;ratioP1;P2;durP2;ratioP2
1382;SDS011;685;47.196;11.880;2023-01-06T00:00:41;1.97;;;1.10;;
1382;SDS011;685;47.196;11.880;2023-01-06T00:03:08;1.53;;;1.00;;
1382;SDS011;685;47.196;11.880;2023-01-06T00:05:37;1.00;;;0.67;;
1382;SDS011;685;47.196;11.880;2023-01-06T00:08:03;1.60;;;1.30;;
1382;SDS011;685;47.196;11.880;2023-01-06T00:10:30;4.40;;;1.80;;
1382;SDS011;685;47.196;11.880;2023-01-06T00:12:57;3.37;;;1.70;;
1382;SDS011;685;47.196;11.880;2023-01-06T00:15:24;2.03;;;1.30;;
1382;SDS011;685;47.196;11.880;2023-01-06T00:17:51;1.30;;;0.77;;
1382;SDS011;685;47.196;11.880;2023-01-06T00:20:18;1.00;;;0.67;;
1382;SDS011;685;47.196;11.880;2023-01-06T00:22:46;1.30;;;0.93;;
1382;SDS011;685;47.196;11.880;2023-01-06T00:25:13;2.07;;;1.33;;
1382;SDS011;685;47.196;11.880;2023-01-06T00:27:40;1.60;;;1.33;;
1382;SDS011;685;47.196;11.880;2023-01-06T00:30:07;1.40;;;1.10;;
1382;SDS011;685;47.196;11.880;2023-01-06T00:32:35;2.37;;;1.10;;
1382;SDS011;685;47.196;11.880;2023-01-06T00:35:02;2.03;;;0.60;;
1382;SDS011;685;47.196;11.880;2023-01-06T00:37:29;1.67;;;0.83;;
1382;SDS011;685;47.196;11.880;2023-01-06T00:39:57;1.13;;;0.73;;
1382;SDS011;685;47.196;11.880;2023-01-06T00:42:24;1.67;;;0.87;;
1382;SDS011;685;47.196;11.880;2023-01-06T00:44:51;1.20;;;0.60;;
1382;SDS011;685;47.196;11.880;2023-01-06T00:47:18;1.53;;;0.70;;
1382;SDS011;685;47.196;11.880;2023-01-06T00:49:45;1.23;;;0.70;;
1382;SDS011;685;47.196;11.880;2023-01-06T00:52:12;0.90;;;0.50;;
1382;SDS011;685;47.196;11.880;2023-01-06T00:54:40;0.90;;;0.57;;
1382;SDS011;685;47.196;11.880;2023-01-06T00:57:08;1.20;;;0.90;;
1382;SDS011;685;47.196;11.880;2023-01-06T00:59:36;1.47;;;1.10;;
1382;SDS011;685;47.196;11.880;2023-01-06T01:02:03;1.93;;;1.30;;
1382;SDS011;685;47.196;11.880;2023-01-06T01:04:30;1.80;;;1.20;;
1382;SDS011;685;47.196;11.880;2023-01-06T01:06:57;1.60;;;1.30;;
1382;SDS011;685;47.196;11.880;2023-01-06T01:09:25;1.80;;;1.33;;
1382;SDS011;685;47.196;11.880;2023-01-06T01:11:54;3.03;;;1.50;;
1382;SDS011;685;47.196;11.880;2023-01-06T01:14:39;1.73;;;1.10;;
1382;SDS011;685;47.196;11.880;2023-01-06T01:17:08;1.90;;;1.27;;
1382;SDS011;685;47.196;11.880;2023-01-06T01:19:37;1.40;;;1.00;;
1382;SDS011;685;47.196;11.880;2023-01-06T01:22:04;1.50;;;1.20;;
1382;SDS011;685;47.196;11.880;2023-01-06T01:24:31;1.20;;;1.10;;
1382;SDS011;685;47.196;11.880;2023-01-06T01:26:59;1.27;;;0.70;;
1382;SDS011;685;47.196;11.880;2023-01-06T01:29:26;1.77;;;0.80;;
1382;SDS011;685;47.196;11.880;2023-01-06T01:31:55;1.30;;;0.83;;
1382;SDS011;685;47.196;11.880;2023-01-06T01:34:22;1.07;;;0.73;;
1382;SDS011;685;47.196;11.880;2023-01-06T01:36:49;1.33;;;0.87;;
1382;SDS011;685;47.196;11.880;2023-01-06T01:39:19;1.00;;;0.83;;
1382;SDS011;685;47.196;11.880;2023-01-06T01:41:47;1.20;;;0.90;;
1382;SDS011;685;47.196;11.880;2023-01-06T01:47:22;1.63;;;0.83;;
1382;SDS011;685;47.196;11.880;2023-01-06T01:49:53;0.90;;;0.57;;
1382;SDS011;685;47.196;11.880;2023-01-06T01:52:32;1.27;;;0.70;;
1382;SDS011;685;47.196;11.880;2023-01-06T01:55:00;1.07;;;0.63;;
1382;SDS011;685;47.196;11.880;2023-01-06T01:57:31;1.33;;;0.53;;
1382;SDS011;685;47.196;11.880;2023-01-06T02:00:02;0.90;;;0.50;;
1382;SDS011;685;47.196;11.880;2023-01-06T02:02:32;1.30;;;0.70;;
1382;SDS011;685;47.196;11.880;2023-01-06T02:04:59;1.43;;;0.57;;
1382;SDS011;685;47.196;11.880;2023-01-06T02:07:27;2.37;;;0.80;;
1382;SDS011;685;47.196;11.880;2023-01-06T02:09:57;1.47;;;0.77;;
1382;SDS011;685;47.196;11.880;2023-01-06T02:12:30;1.10;;;0.70;;
1382;SDS011;685;47.196;11.880;2023-01-06T02:14:57;2.10;;;0.97;;
1382;SDS011;685;47.196;11.880;2023-01-06T02:17:29;1.30;;;0.93;;
1382;SDS011;685;47.196;11.880;2023-01-06T02:20:12;1.20;;;1.00;;
1382;SDS011;685;47.196;11.880;2023-01-06T02:26:14;1.27;;;0.90;;
1382;SDS011;685;47.196;11.880;2023-01-06T02:29:18;1.00;;;0.73;;
1382;SDS011;685;47.196;11.880;2023-01-06T02:32:15;1.00;;;0.70;;
1382;SDS011;685;47.196;11.880;2023-01-06T02:34:53;1.23;;;0.90;;
1382;SDS011;685;47.196;11.880;2023-01-06T02:37:35;0.90;;;0.50;;
1382;SDS011;685;47.196;11.880;2023-01-06T02:40:16;1.00;;;0.60;;
1382;SDS011;685;47.196;11.880;2023-01-06T02:42:56;1.00;;;0.70;;
1382;SDS011;685;47.196;11.880;2023-01-06T02:45:33;1.10;;;0.73;;
1382;SDS011;685;47.196;11.880;2023-01-06T02:48:10;1.20;;;0.70;;
1382;SDS011;685;47.196;11.880;2023-01-06T02:50:45;1.23;;;0.77;;
1382;SDS011;685;47.196;11.880;2023-01-06T02:53:17;0.90;;;0.60;;
1382;SDS011;685;47.196;11.880;2023-01-06T02:55:46;1.20;;;0.73;;
1382;SDS011;685;47.196;11.880;2023-01-06T02:58:16;1.73;;;0.80;;
1382;SDS011;685;47.196;11.880;2023-01-06T03:00:51;1.07;;;0.67;;
1382;SDS011;685;47.196;11.880;2023-01-06T03:03:24;0.90;;;0.50;;
1382;SDS011;685;47.196;11.880;2023-01-06T03:05:56;6.33;;;4.03;;
1382;SDS011;685;47.196;11.880;2023-01-06T03:08:27;1.87;;;1.00;;
1382;SDS011;685;47.196;11.880;2023-01-06T03:10:55;0.90;;;0.60;;
1382;SDS011;685;47.196;11.880;2023-01-06T03:13:26;1.00;;;0.60;;
1382;SDS011;685;47.196;11.880;2023-01-06T03:15:58;1.40;;;0.90;;
1382;SDS011;685;47.196;11.880;2023-01-06T03:18:27;1.00;;;0.67;;
1382;SDS011;685;47.196;11.880;2023-01-06T03:20:55;1.30;;;0.67;;
1382;SDS011;685;47.196;11.880;2023-01-06T03:23:24;2.20;;;0.93;;
1382;SDS011;685;47.196;11.880;2023-01-06T03:25:51;1.00;;;0.60;;
1382;SDS011;685;47.196;11.880;2023-01-06T03:28:18;0.97;;;0.70;;
1382;SDS011;685;47.196;11.880;2023-01-06T03:30:47;1.20;;;0.80;;
1382;SDS011;685;47.196;11.880;2023-01-06T03:33:21;1.00;;;0.70;;
1382;SDS011;685;47.196;11.880;2023-01-06T03:35:59;2.83;;;0.90;;
1382;SDS011;685;47.196;11.880;2023-01-06T03:38:37;0.97;;;0.57;;
1382;SDS011;685;47.196;11.880;2023-01-06T03:41:14;1.27;;;0.87;;
1382;SDS011;685;47.196;11.880;2023-01-06T03:43:56;1.10;;;0.57;;
1382;SDS011;685;47.196;11.880;2023-01-06T03:46:30;1.17;;;0.70;;
1382;SDS011;685;47.196;11.880;2023-01-06T03:49:03;2.80;;;0.60;;
1382;SDS011;685;47.196;11.880;2023-01-06T03:51:37;1.30;;;0.63;;
1382;SDS011;685;47.196;11.880;2023-01-06T03:54:09;1.00;;;0.70;;
1382;SDS011;685;47.196;11.880;2023-01-06T03:56:46;1.00;;;0.50;;
1382;SDS011;685;47.196;11.880;2023-01-06T03:59:17;0.90;;;0.60;;
1382;SDS011;685;47.196;11.880;2023-01-06T04:01:47;1.30;;;0.60;;
1382;SDS011;685;47.196;11.880;2023-01-06T04:04:14;1.70;;;0.77;;
1382;SDS011;685;47.196;11.880;2023-01-06T04:06:43;1.33;;;0.80;;
1382;SDS011;685;47.196;11.880;2023-01-06T04:09:10;1.20;;;0.90;;
1382;SDS011;685;47.196;11.880;2023-01-06T04:11:37;1.10;;;0.70;;
1382;SDS011;685;47.196;11.880;2023-01-06T04:14:21;1.23;;;0.80;;
1382;SDS011;685;47.196;11.880;2023-01-06T04:16:48;1.20;;;0.80;;
1382;SDS011;685;47.196;11.880;2023-01-06T04:19:15;1.77;;;0.90;;
1382;SDS011;685;47.196;11.880;2023-01-06T04:21:44;1.03;;;0.67;;
1382;SDS011;685;47.196;11.880;2023-01-06T04:24:11;1.50;;;0.80;;
1382;SDS011;685;47.196;11.880;2023-01-06T04:26:37;1.60;;;0.80;;
1382;SDS011;685;47.196;11.880;2023-01-06T04:29:04;1.40;;;0.70;;
1382;SDS011;685;47.196;11.880;2023-01-06T04:31:31;1.40;;;0.60;;
1382;SDS011;685;47.196;11.880;2023-01-06T04:33:58;1.10;;;0.70;;
1382;SDS011;685;47.196;11.880;2023-01-06T04:36:25;0.90;;;0.60;;
1382;SDS011;685;47.196;11.880;2023-01-06T04:38:53;0.90;;;0.50;;
1382;SDS011;685;47.196;11.880;2023-01-06T04:41:20;1.40;;;0.60;;
1382;SDS011;685;47.196;11.880;2023-01-06T04:43:47;1.00;;;0.63;;
1382;SDS011;685;47.196;11.880;2023-01-06T04:46:14;1.00;;;0.80;;
1382;SDS011;685;47.196;11.880;2023-01-06T04:48:41;1.90;;;0.70;;
1382;SDS011;685;47.196;11.880;2023-01-06T04:51:09;1.00;;;0.70;;
1382;SDS011;685;47.196;11.880;2023-01-06T04:53:37;1.10;;;0.70;;
1382;SDS011;685;47.196;11.880;2023-01-06T04:56:07;1.20;;;0.87;;
1382;SDS011;685;47.196;11.880;2023-01-06T04:58:35;3.13;;;1.80;;
1382;SDS011;685;47.196;11.880;2023-01-06T05:01:03;3.10;;;2.03;;
1382;SDS011;685;47.196;11.880;2023-01-06T05:03:31;5.93;;;3.10;;
1382;SDS011;685;47.196;11.880;2023-01-06T05:05:59;6.67;;;3.70;;
1382;SDS011;685;47.196;11.880;2023-01-06T05:08:30;3.53;;;2.60;;
1382;SDS011;685;47.196;11.880;2023-01-06T05:11:00;2.63;;;1.93;;
1382;SDS011;685;47.196;11.880;2023-01-06T05:13:29;1.93;;;1.50;;
1382;SDS011;685;47.196;11.880;2023-01-06T05:15:57;3.30;;;1.07;;
1382;SDS011;685;47.196;11.880;2023-01-06T05:18:24;1.30;;;0.87;;
1382;SDS011;685;47.196;11.880;2023-01-06T05:20:50;1.30;;;1.00;;
1382;SDS011;685;47.196;11.880;2023-01-06T05:23:18;1.70;;;1.40;;
1382;SDS011;685;47.196;11.880;2023-01-06T05:25:45;2.93;;;0.90;;
1382;SDS011;685;47.196;11.880;2023-01-06T05:28:12;1.00;;;0.70;;
1382;SDS011;685;47.196;11.880;2023-01-06T05:30:40;1.30;;;0.80;;
1382;SDS011;685;47.196;11.880;2023-01-06T05:33:07;1.13;;;1.03;;
1382;SDS011;685;47.196;11.880;2023-01-06T05:35:34;1.10;;;0.70;;
1382;SDS011;685;47.196;11.880;2023-01-06T05:38:01;1.40;;;0.50;;
1382;SDS011;685;47.196;11.880;2023-01-06T05:40:28;1.00;;;0.90;;
1382;SDS011;685;47.196;11.880;2023-01-06T05:42:55;1.00;;;0.87;;
1382;SDS011;685;47.196;11.880;2023-01-06T05:45:23;1.40;;;0.73;;
1382;SDS011;685;47.196;11.880;2023-01-06T05:47:51;2.17;;;1.10;;
1382;SDS011;685;47.196;11.880;2023-01-06T05:50:18;1.57;;;1.10;;
1382;SDS011;685;47.196;11.880;2023-01-06T05:52:45;1.60;;;0.80;;
1382;SDS011;685;47.196;11.880;2023-01-06T05:55:12;1.87;;;1.00;;
1382;SDS011;685;47.196;11.880;2023-01-06T05:57:39;0.90;;;0.60;;
1382;SDS011;685;47.196;11.880;2023-01-06T06:00:06;1.17;;;0.80;;
1382;SDS011;685;47.196;11.880;2023-01-06T06:02:34;1.10;;;0.70;;
1382;SDS011;685;47.196;11.880;2023-01-06T06:05:03;1.20;;;0.97;;
1382;SDS011;685;47.196;11.880;2023-01-06T06:07:30;1.17;;;0.90;;
1382;SDS011;685;47.196;11.880;2023-01-06T06:09:57;1.40;;;0.70;;
1382;SDS011;685;47.196;11.880;2023-01-06T06:12:24;1.43;;;0.93;;
1382;SDS011;685;47.196;11.880;2023-01-06T06:14:51;1.97;;;0.90;;
1382;SDS011;685;47.196;11.880;2023-01-06T06:17:17;1.50;;;0.80;;
1382;SDS011;685;47.196;11.880;2023-01-06T06:19:44;1.40;;;0.90;;
1382;SDS011;685;47.196;11.880;2023-01-06T06:22:12;0.97;;;0.77;;
1382;SDS011;685;47.196;11.880;2023-01-06T06:24:39;2.13;;;1.10;;
1382;SDS011;685;47.196;11.880;2023-01-06T06:27:06;1.10;;;0.70;;
1382;SDS011;685;47.196;11.880;2023-01-06T06:29:33;1.60;;;1.07;;
1382;SDS011;685;47.196;11.880;2023-01-06T06:32:00;14.33;;;12.90;;
1382;SDS011;685;47.196;11.880;2023-01-06T06:34:27;1.77;;;1.57;;
1382;SDS011;685;47.196;11.880;2023-01-06T06:36:54;2.07;;;1.60;;
1382;SDS011;685;47.196;11.880;2023-01-06T06:39:22;2.13;;;1.50;;
1382;SDS011;685;47.196;11.880;2023-01-06T06:41:49;3.27;;;3.07;;
1382;SDS011;685;47.196;11.880;2023-01-06T06:44:16;2.70;;;1.00;;
1382;SDS011;685;47.196;11.880;2023-01-06T06:46:43;3.00;;;1.20;;
1382;SDS011;685;47.196;11.880;2023-01-06T06:49:10;6.50;;;5.90;;
1382;SDS011;685;47.196;11.880;2023-01-06T06:51:36;3.70;;;3.40;;
1382;SDS011;685;47.196;11.880;2023-01-06T06:54:03;2.50;;;1.50;;
1382;SDS011;685;47.196;11.880;2023-01-06T06:56:32;1.10;;;0.80;;
1382;SDS011;685;47.196;11.880;2023-01-06T06:58:58;1.07;;;0.70;;
1382;SDS011;685;47.196;11.880;2023-01-06T07:01:25;2.23;;;1.37;;
1382;SDS011;685;47.196;11.880;2023-01-06T07:03:55;1.10;;;0.83;;
1382;SDS011;685;47.196;11.880;2023-01-06T07:06:22;1.70;;;0.90;;
1382;SDS011;685;47.196;11.880;2023-01-06T07:08:51;1.60;;;1.30;;
1382;SDS011;685;47.196;11.880;2023-01-06T07:11:18;4.73;;;3.50;;
1382;SDS011;685;47.196;11.880;2023-01-06T07:13:47;4.23;;;3.77;;
1382;SDS011;685;47.196;11.880;2023-01-06T07:16:14;4.17;;;3.57;;
1382;SDS011;685;47.196;11.880;2023-01-06T07:18:42;3.20;;;2.70;;
1382;SDS011;685;47.196;11.880;2023-01-06T07:21:09;1.60;;;1.30;;
1382;SDS011;685;47.196;11.880;2023-01-06T07:23:35;1.93;;;1.13;;
1382;SDS011;685;47.196;11.880;2023-01-06T07:26:02;2.27;;;1.40;;
1382;SDS011;685;47.196;11.880;2023-01-06T07:28:30;1.40;;;1.00;;
1382;SDS011;685;47.196;11.880;2023-01-06T07:30:59;2.70;;;1.30;;
1382;SDS011;685;47.196;11.880;2023-01-06T07:33:27;2.40;;;0.87;;
1382;SDS011;685;47.196;11.880;2023-01-06T07:35:54;2.87;;;1.10;;
1382;SDS011;685;47.196;11.880;2023-01-06T07:38:22;1.00;;;0.90;;
1382;SDS011;685;47.196;11.880;2023-01-06T07:40:50;7.20;;;4.57;;
1382;SDS011;685;47.196;11.880;2023-01-06T07:43:17;4.50;;;3.33;;
1382;SDS011;685;47.196;11.880;2023-01-06T07:45:44;4.33;;;1.77;;
1382;SDS011;685;47.196;11.880;2023-01-06T07:48:13;1.60;;;1.27;;
1382;SDS011;685;47.196;11.880;2023-01-06T07:50:40;2.33;;;2.13;;
1382;SDS011;685;47.196;11.880;2023-01-06T07:53:07;4.00;;;3.70;;
1382;SDS011;685;47.196;11.880;2023-01-06T07:55:35;4.63;;;3.60;;
1382;SDS011;685;47.196;11.880;2023-01-06T07:58:03;3.20;;;1.77;;
1382;SDS011;685;47.196;11.880;2023-01-06T08:00:30;2.80;;;2.00;;
1382;SDS011;685;47.196;11.880;2023-01-06T08:02:58;1.67;;;1.13;;
1382;SDS011;685;47.196;11.880;2023-01-06T08:05:30;3.33;;;2.83;;
1382;SDS011;685;47.196;11.880;2023-01-06T08:07:56;2.50;;;2.30;;
1382;SDS011;685;47.196;11.880;2023-01-06T08:10:23;2.80;;;2.30;;
1382;SDS011;685;47.196;11.880;2023-01-06T08:12:50;2.53;;;2.33;;
1382;SDS011;685;47.196;11.880;2023-01-06T08:15:17;2.87;;;2.67;;
1382;SDS011;685;47.196;11.880;2023-01-06T08:17:44;2.20;;;1.83;;
1382;SDS011;685;47.196;11.880;2023-01-06T08:20:11;3.57;;;2.10;;
1382;SDS011;685;47.196;11.880;2023-01-06T08:22:39;1.70;;;1.60;;
1382;SDS011;685;47.196;11.880;2023-01-06T08:25:08;2.13;;;1.80;;
1382;SDS011;685;47.196;11.880;2023-01-06T08:27:35;2.80;;;1.90;;
1382;SDS011;685;47.196;11.880;2023-01-06T08:30:02;3.57;;;2.60;;
1382;SDS011;685;47.196;11.880;2023-01-06T08:32:30;4.27;;;2.87;;
1382;SDS011;685;47.196;11.880;2023-01-06T08:34:57;4.37;;;1.43;;
1382;SDS011;685;47.196;11.880;2023-01-06T08:37:24;1.57;;;1.20;;
1382;SDS011;685;47.196;11.880;2023-01-06T08:39:52;1.30;;;1.13;;
1382;SDS011;685;47.196;11.880;2023-01-06T08:42:19;3.00;;;1.43;;
1382;SDS011;685;47.196;11.880;2023-01-06T08:44:46;1.20;;;0.80;;
1382;SDS011;685;47.196;11.880;2023-01-06T08:47:13;2.63;;;1.80;;
1382;SDS011;685;47.196;11.880;2023-01-06T08:49:40;3.20;;;2.40;;
1382;SDS011;685;47.196;11.880;2023-01-06T08:52:07;2.73;;;2.53;;
1382;SDS011;685;47.196;11.880;2023-01-06T08:54:33;3.00;;;2.10;;
1382;SDS011;685;47.196;11.880;2023-01-06T08:57:02;3.33;;;3.03;;
1382;SDS011;685;47.196;11.880;2023-01-06T08:59:29;4.37;;;2.60;;
1382;SDS011;685;47.196;11.880;2023-01-06T09:01:56;1.83;;;1.67;;
1382;SDS011;685;47.196;11.880;2023-01-06T09:04:23;1.50;;;1.33;;
1382;SDS011;685;47.196;11.880;2023-01-06T09:06:49;3.20;;;2.10;;
1382;SDS011;685;47.196;11.880;2023-01-06T09:09:16;2.80;;;2.60;;
1382;SDS011;685;47.196;11.880;2023-01-06T09:11:44;3.83;;;3.23;;
1382;SDS011;685;47.196;11.880;2023-01-06T09:14:12;2.90;;;2.20;;
1382;SDS011;685;47.196;11.880;2023-01-06T09:16:39;2.57;;;2.17;;
1382;SDS011;685;47.196;11.880;2023-01-06T09:19:06;4.77;;;4.10;;
1382;SDS011;685;47.196;11.880;2023-01-06T09:21:34;4.90;;;3.50;;
1382;SDS011;685;47.196;11.880;2023-01-06T09:24:01;2.93;;;2.60;;
1382;SDS011;685;47.196;11.880;2023-01-06T09:26:28;3.23;;;2.63;;
1382;SDS011;685;47.196;11.880;2023-01-06T09:28:55;3.70;;;2.57;;
1382;SDS011;685;47.196;11.880;2023-01-06T09:31:24;2.53;;;1.97;;
1382;SDS011;685;47.196;11.880;2023-01-06T09:33:50;3.80;;;3.30;;
1382;SDS011;685;47.196;11.880;2023-01-06T09:36:18;8.13;;;4.77;;
1382;SDS011;685;47.196;11.880;2023-01-06T09:38:45;5.87;;;5.07;;
1382;SDS011;685;47.196;11.880;2023-01-06T09:41:16;3.30;;;3.00;;
1382;SDS011;685;47.196;11.880;2023-01-06T09:44:05;3.10;;;2.80;;
1382;SDS011;685;47.196;11.880;2023-01-06T09:46:40;3.00;;;2.77;;
1382;SDS011;685;47.196;11.880;2023-01-06T09:49:12;3.80;;;3.10;;
1382;SDS011;685;47.196;11.880;2023-01-06T09:51:46;7.87;;;4.97;;
1382;SDS011;685;47.196;11.880;2023-01-06T09:54:14;6.57;;;5.87;;
1382;SDS011;685;47.196;11.880;2023-01-06T09:56:48;8.27;;;7.47;;
1382;SDS011;685;47.196;11.880;2023-01-06T09:59:20;9.53;;;7.80;;
1382;SDS011;685;47.196;11.880;2023-01-06T10:01:53;4.20;;;3.80;;
1382;SDS011;685;47.196;11.880;2023-01-06T10:04:24;6.23;;;3.40;;
1382;SDS011;685;47.196;11.880;2023-01-06T10:06:55;3.97;;;3.60;;
1382;SDS011;685;47.196;11.880;2023-01-06T10:09:37;6.70;;;6.03;;
1382;SDS011;685;47.196;11.880;2023-01-06T10:12:14;6.90;;;5.07;;
1382;SDS011;685;47.196;11.880;2023-01-06T10:14:53;14.10;;;9.57;;
1382;SDS011;685;47.196;11.880;2023-01-06T10:17:35;5.80;;;5.20;;
1382;SDS011;685;47.196;11.880;2023-01-06T10:20:18;5.83;;;5.00;;
1382;SDS011;685;47.196;11.880;2023-01-06T10:22:59;4.07;;;3.57;;
1382;SDS011;685;47.196;11.880;2023-01-06T10:25:39;3.57;;;2.17;;
1382;SDS011;685;47.196;11.880;2023-01-06T10:28:12;3.90;;;2.00;;
1382;SDS011;685;47.196;11.880;2023-01-06T10:30:45;4.60;;;3.40;;
1382;SDS011;685;47.196;11.880;2023-01-06T10:33:19;4.23;;;3.83;;
1382;SDS011;685;47.196;11.880;2023-01-06T10:35:48;6.30;;;5.37;;
1382;SDS011;685;47.196;11.880;2023-01-06T10:38:15;8.30;;;5.47;;
1382;SDS011;685;47.196;11.880;2023-01-06T10:40:43;7.60;;;5.80;;
1382;SDS011;685;47.196;11.880;2023-01-06T10:43:11;8.33;;;6.37;;
1382;SDS011;685;47.196;11.880;2023-01-06T10:45:39;7.03;;;6.13;;
1382;SDS011;685;47.196;11.880;2023-01-06T10:48:10;7.27;;;6.57;;
1382;SDS011;685;47.196;11.880;2023-01-06T10:50:41;12.00;;;7.30;;
1382;SDS011;685;47.196;11.880;2023-01-06T10:53:08;11.50;;;6.90;;
1382;SDS011;685;47.196;11.880;2023-01-06T10:55:37;8.43;;;6.30;;
1382;SDS011;685;47.196;11.880;2023-01-06T10:58:13;9.00;;;6.83;;
1382;SDS011;685;47.196;11.880;2023-01-06T11:00:54;5.30;;;4.67;;
1382;SDS011;685;47.196;11.880;2023-01-06T11:03:23;4.70;;;3.70;;
1382;SDS011;685;47.196;11.880;2023-01-06T11:05:59;5.37;;;3.70;;
1382;SDS011;685;47.196;11.880;2023-01-06T11:08:30;4.37;;;3.50;;
1382;SDS011;685;47.196;11.880;2023-01-06T11:10:57;6.70;;;4.90;;
1382;SDS011;685;47.196;11.880;2023-01-06T11:13:25;3.93;;;3.53;;
1382;SDS011;685;47.196;11.880;2023-01-06T11:15:54;4.80;;;4.00;;
1382;SDS011;685;47.196;11.880;2023-01-06T11:18:24;6.83;;;3.77;;
1382;SDS011;685;47.196;11.880;2023-01-06T11:21:02;4.47;;;3.40;;
1382;SDS011;685;47.196;11.880;2023-01-06T11:23:31;4.30;;;3.10;;
1382;SDS011;685;47.196;11.880;2023-01-06T11:26:03;6.50;;;3.30;;
1382;SDS011;685;47.196;11.880;2023-01-06T11:28:41;6.80;;;3.20;;
1382;SDS011;685;47.196;11.880;2023-01-06T11:31:09;3.83;;;2.90;;
1382;SDS011;685;47.196;11.880;2023-01-06T11:33:48;2.33;;;2.10;;
1382;SDS011;685;47.196;11.880;2023-01-06T11:36:19;4.07;;;2.20;;
1382;SDS011;685;47.196;11.880;2023-01-06T11:38:47;2.30;;;2.00;;
1382;SDS011;685;47.196;11.880;2023-01-06T11:41:20;4.60;;;2.13;;
1382;SDS011;685;47.196;11.880;2023-01-06T11:43:53;2.77;;;2.30;;
1382;SDS011;685;47.196;11.880;2023-01-06T11:46:22;1.90;;;1.70;;
1382;SDS011;685;47.196;11.880;2023-01-06T11:48:53;2.70;;;1.80;;
1382;SDS011;685;47.196;11.880;2023-01-06T11:51:42;2.67;;;2.47;;
1382;SDS011;685;47.196;11.880;2023-01-06T11:54:20;3.07;;;2.40;;
1382;SDS011;685;47.196;11.880;2023-01-06T11:56:56;2.87;;;2.20;;
1382;SDS011;685;47.196;11.880;2023-01-06T11:59:53;3.00;;;1.97;;
1382;SDS011;685;47.196;11.880;2023-01-06T12:02:29;3.07;;;1.40;;
1382;SDS011;685;47.196;11.880;2023-01-06T12:05:03;1.40;;;1.27;;
1382;SDS011;685;47.196;11.880;2023-01-06T12:07:39;1.60;;;1.33;;
1382;SDS011;685;47.196;11.880;2023-01-06T12:10:13;1.50;;;1.10;;
1382;SDS011;685;47.196;11.880;2023-01-06T12:12:43;2.30;;;0.80;;
1382;SDS011;685;47.196;11.880;2023-01-06T12:15:10;1.70;;;1.00;;
1382;SDS011;685;47.196;11.880;2023-01-06T12:17:39;1.50;;;1.10;;
1382;SDS011;685;47.196;11.880;2023-01-06T12:20:15;2.03;;;1.20;;
1382;SDS011;685;47.196;11.880;2023-01-06T12:22:47;2.67;;;1.30;;
1382;SDS011;685;47.196;11.880;2023-01-06T12:25:18;2.37;;;1.80;;
1382;SDS011;685;47.196;11.880;2023-01-06T12:27:49;2.57;;;1.30;;
1382;SDS011;685;47.196;11.880;2023-01-06T12:30:20;2.23;;;1.50;;
1382;SDS011;685;47.196;11.880;2023-01-06T12:32:53;1.93;;;1.73;;
1382;SDS011;685;47.196;11.880;2023-01-06T12:35:25;2.40;;;1.50;;
1382;SDS011;685;47.196;11.880;2023-01-06T12:37:57;3.30;;;2.10;;
1382;SDS011;685;47.196;11.880;2023-01-06T12:40:29;2.77;;;2.03;;
1382;SDS011;685;47.196;11.880;2023-01-06T12:43:02;3.33;;;2.30;;
1382;SDS011;685;47.196;11.880;2023-01-06T12:45:41;2.77;;;2.30;;
1382;SDS011;685;47.196;11.880;2023-01-06T12:48:15;4.20;;;2.50;;
1382;SDS011;685;47.196;11.880;2023-01-06T12:50:46;3.80;;;2.30;;
1382;SDS011;685;47.196;11.880;2023-01-06T12:53:19;3.63;;;2.90;;
1382;SDS011;685;47.196;11.880;2023-01-06T12:55:52;4.70;;;2.97;;
1382;SDS011;685;47.196;11.880;2023-01-06T12:58:39;3.20;;;1.97;;
1382;SDS011;685;47.196;11.880;2023-01-06T13:01:15;4.93;;;1.93;;
1382;SDS011;685;47.196;11.880;2023-01-06T13:03:53;2.87;;;1.90;;
1382;SDS011;685;47.196;11.880;2023-01-06T13:07:00;1.50;;;1.40;;
1382;SDS011;685;47.196;11.880;2023-01-06T13:09:39;3.00;;;1.60;;
1382;SDS011;685;47.196;11.880;2023-01-06T13:12:39;2.73;;;1.73;;
1382;SDS011;685;47.196;11.880;2023-01-06T13:15:14;2.93;;;1.90;;
1382;SDS011;685;47.196;11.880;2023-01-06T13:17:46;3.20;;;2.00;;
1382;SDS011;685;47.196;11.880;2023-01-06T13:20:22;2.60;;;2.40;;
1382;SDS011;685;47.196;11.880;2023-01-06T13:22:57;7.50;;;4.00;;
1382;SDS011;685;47.196;11.880;2023-01-06T13:28:35;2.50;;;1.83;;
1382;SDS011;685;47.196;11.880;2023-01-06T13:31:15;2.13;;;1.40;;
1382;SDS011;685;47.196;11.880;2023-01-06T13:39:51;2.70;;;1.60;;
1382;SDS011;685;47.196;11.880;2023-01-06T13:42:25;3.53;;;1.70;;
1382;SDS011;685;47.196;11.880;2023-01-06T13:44:58;4.67;;;2.13;;
1382;SDS011;685;47.196;11.880;2023-01-06T13:47:25;3.30;;;2.43;;
1382;SDS011;685;47.196;11.880;2023-01-06T13:49:52;3.00;;;2.27;;
1382;SDS011;685;47.196;11.880;2023-01-06T13:52:21;4.87;;;1.80;;
1382;SDS011;685;47.196;11.880;2023-01-06T13:54:57;3.03;;;1.77;;
1382;SDS011;685;47.196;11.880;2023-01-06T13:57:34;1.87;;;1.53;;
1382;SDS011;685;47.196;11.880;2023-01-06T14:00:16;2.03;;;1.50;;
1382;SDS011;685;47.196;11.880;2023-01-06T14:05:55;2.33;;;1.57;;
1382;SDS011;685;47.196;11.880;2023-01-06T14:08:24;3.00;;;1.63;;
1382;SDS011;685;47.196;11.880;2023-01-06T14:10:58;2.40;;;1.63;;
1382;SDS011;685;47.196;11.880;2023-01-06T14:13:33;1.70;;;1.60;;
1382;SDS011;685;47.196;11.880;2023-01-06T14:16:05;1.50;;;1.27;;
1382;SDS011;685;47.196;11.880;2023-01-06T14:18:35;1.40;;;0.93;;
1382;SDS011;685;47.196;11.880;2023-01-06T14:21:06;2.37;;;1.20;;
1382;SDS011;685;47.196;11.880;2023-01-06T14:23:57;4.57;;;1.80;;
1382;SDS011;685;47.196;11.880;2023-01-06T14:35:37;3.93;;;2.20;;
1382;SDS011;685;47.196;11.880;2023-01-06T14:38:14;2.40;;;1.87;;
1382;SDS011;685;47.196;11.880;2023-01-06T14:40:55;2.43;;;1.50;;
1382;SDS011;685;47.196;11.880;2023-01-06T14:43:28;3.20;;;1.47;;
1382;SDS011;685;47.196;11.880;2023-01-06T14:46:12;3.17;;;1.20;;
1382;SDS011;685;47.196;11.880;2023-01-06T14:48:44;2.27;;;1.20;;
1382;SDS011;685;47.196;11.880;2023-01-06T14:51:16;1.77;;;1.37;;
1382;SDS011;685;47.196;11.880;2023-01-06T14:53:46;4.07;;;1.20;;
1382;SDS011;685;47.196;11.880;2023-01-06T14:56:20;2.63;;;2.10;;
1382;SDS011;685;47.196;11.880;2023-01-06T14:58:49;3.07;;;1.40;;
1382;SDS011;685;47.196;11.880;2023-01-06T15:01:21;2.20;;;1.77;;
1382;SDS011;685;47.196;11.880;2023-01-06T15:03:53;2.33;;;2.13;;
1382;SDS011;685;47.196;11.880;2023-01-06T15:06:22;2.80;;;2.07;;
1382;SDS011;685;47.196;11.880;2023-01-06T15:08:50;2.73;;;2.37;;
1382;SDS011;685;47.196;11.880;2023-01-06T15:11:20;3.40;;;3.10;;
1382;SDS011;685;47.196;11.880;2023-01-06T15:13:50;13.73;;;11.27;;
1382;SDS011;685;47.196;11.880;2023-01-06T15:16:18;12.60;;;9.27;;
1382;SDS011;685;47.196;11.880;2023-01-06T15:18:52;3.23;;;2.40;;
1382;SDS011;685;47.196;11.880;2023-01-06T15:21:19;7.03;;;4.10;;
1382;SDS011;685;47.196;11.880;2023-01-06T15:23:49;2.80;;;2.20;;
1382;SDS011;685;47.196;11.880;2023-01-06T15:26:17;18.73;;;12.37;;
1382;SDS011;685;47.196;11.880;2023-01-06T15:28:59;23.80;;;16.90;;
1382;SDS011;685;47.196;11.880;2023-01-06T15:31:30;24.20;;;16.93;;
1382;SDS011;685;47.196;11.880;2023-01-06T15:33:58;8.90;;;8.00;;
1382;SDS011;685;47.196;11.880;2023-01-06T15:36:28;5.43;;;4.90;;
1382;SDS011;685;47.196;11.880;2023-01-06T15:38:56;7.33;;;6.63;;
1382;SDS011;685;47.196;11.880;2023-01-06T15:41:26;3.90;;;3.20;;
1382;SDS011;685;47.196;11.880;2023-01-06T15:44:02;2.87;;;2.60;;
1382;SDS011;685;47.196;11.880;2023-01-06T15:46:46;4.90;;;4.30;;
1382;SDS011;685;47.196;11.880;2023-01-06T15:49:18;4.60;;;3.50;;
1382;SDS011;685;47.196;11.880;2023-01-06T15:51:53;3.70;;;3.07;;
1382;SDS011;685;47.196;11.880;2023-01-06T15:54:22;5.17;;;4.67;;
1382;SDS011;685;47.196;11.880;2023-01-06T15:56:51;5.07;;;4.60;;
1382;SDS011;685;47.196;11.880;2023-01-06T15:59:18;3.40;;;2.53;;
1382;SDS011;685;47.196;11.880;2023-01-06T16:01:48;2.43;;;2.23;;
1382;SDS011;685;47.196;11.880;2023-01-06T16:04:17;4.90;;;4.00;;